Time;durP1;ratioP1;P1;durP2;ratioP2;P2;SDS_P1;SDS_P2;PMS_P1;PMS_P2;Temp;Humidity;BMP_temperature;BMP_pressure;BME280_temperature;BME280_humidity;BME280_pressure;Samples;Min_cycle;Max_cycle;Signal;HPM_P1;HPM_P2
2023/02/13 00:02:53;;;;;;;;;;;18.90;52.50;;;;;;7531216;23;19905;-76
2023/02/13 00:05:54;;;;;;;;;;;18.90;52.50;;;;;;7531604;23;20549;-77
2023/02/13 00:08:54;;;;;;;;;;;18.90;52.50;;;;;;7531577;23;19905;-76
2023/02/13 00:11:55;;;;;;;;;;;18.90;52.50;;;;;;7531257;23;19917;-76
2023/02/13 00:14:55;;;;;;;;;;;18.90;52.50;;;;;;7532224;23;20352;-76
2023/02/13 00:17:56;;;;;;;;;;;18.90;52.60;;;;;;7531246;23;19906;-76
2023/02/13 00:21:01;;;;;;;;;;;18.90;52.50;;;;;;7530700;23;19913;-75
2023/02/13 00:24:01;;;;;;;;;;;18.90;52.50;;;;;;7579097;23;19906;-76
2023/02/13 00:27:02;;;;;;;;;;;18.90;52.50;;;;;;7531360;23;19967;-77
2023/02/13 00:30:03;;;;;;;;;;;18.90;52.50;;;;;;7532207;23;19910;-76
2023/02/13 00:33:03;;;;;;;;;;;18.90;52.50;;;;;;7578506;23;19906;-76
2023/02/13 00:36:04;;;;;;;;;;;18.90;52.60;;;;;;7578412;23;19906;-76
2023/02/13 00:39:05;;;;;;;;;;;18.90;52.50;;;;;;7532370;23;19921;-76
2023/02/13 00:42:05;;;;;;;;;;;18.90;52.60;;;;;;7579594;23;19959;-76
2023/02/13 00:45:06;;;;;;;;;;;18.90;52.50;;;;;;7532524;23;19905;-76
2023/02/13 00:48:06;;;;;;;;;;;18.90;52.50;;;;;;7532859;23;19906;-76
2023/02/13 00:51:07;;;;;;;;;;;18.90;52.60;;;;;;7579971;23;20359;-76
2023/02/13 00:54:07;;;;;;;;;;;18.90;52.60;;;;;;7532875;23;19913;-76
2023/02/13 00:57:08;;;;;;;;;;;18.90;52.50;;;;;;7532156;23;19986;-76
2023/02/13 01:00:09;;;;;;;;;;;18.90;52.60;;;;;;7530860;23;19914;-76
2023/02/13 01:03:09;;;;;;;;;;;18.90;52.60;;;;;;7533011;23;19905;-76
2023/02/13 01:06:10;;;;;;;;;;;18.90;52.60;;;;;;7532808;23;19968;-76
2023/02/13 01:09:10;;;;;;;;;;;18.90;52.60;;;;;;7533360;23;19905;-76
2023/02/13 01:12:11;;;;;;;;;;;18.90;52.60;;;;;;7532752;23;19965;-76
2023/02/13 01:15:11;;;;;;;;;;;18.90;52.50;;;;;;7533029;23;19972;-76
2023/02/13 01:18:16;;;;;;;;;;;18.90;52.60;;;;;;7579457;23;20048;-76
2023/02/13 01:21:18;;;;;;;;;;;18.80;52.50;;;;;;7533278;23;19914;-77
2023/02/13 01:24:19;;;;;;;;;;;18.90;52.60;;;;;;7531516;23;19906;-76
2023/02/13 01:27:19;;;;;;;;;;;18.90;52.60;;;;;;7532558;23;20371;-76
2023/02/13 01:30:20;;;;;;;;;;;18.80;52.50;;;;;;7579615;23;19905;-76
2023/02/13 01:33:24;;;;;;;;;;;18.90;52.60;;;;;;7532910;23;19906;-76
2023/02/13 01:36:25;;;;;;;;;;;18.90;52.60;;;;;;7532210;23;19941;-77
2023/02/13 01:39:25;;;;;;;;;;;18.90;52.60;;;;;;7532906;23;19999;-77
2023/02/13 01:42:27;;;;;;;;;;;18.90;52.60;;;;;;7531983;23;19913;-76
2023/02/13 01:45:29;;;;;;;;;;;18.90;52.60;;;;;;7531919;23;20363;-76
2023/02/13 01:48:30;;;;;;;;;;;18.90;52.60;;;;;;7531093;23;19916;-76
2023/02/13 01:51:32;;;;;;;;;;;18.90;52.60;;;;;;7532137;23;19917;-76
2023/02/13 01:54:33;;;;;;;;;;;18.80;52.50;;;;;;7531251;23;20332;-77
2023/02/13 01:57:34;;;;;;;;;;;18.90;52.60;;;;;;7491863;23;19992;-76
2023/02/13 02:00:35;;;;;;;;;;;18.90;52.60;;;;;;7491315;23;20017;-76
2023/02/13 02:03:41;;;;;;;;;;;18.80;52.50;;;;;;7491738;23;19910;-76
2023/02/13 02:06:46;;;;;;;;;;;18.90;52.60;;;;;;7491242;23;19906;-76
2023/02/13 02:09:47;;;;;;;;;;;18.90;52.60;;;;;;7490335;23;19906;-76
2023/02/13 02:13:05;;;;;;;;;;;18.90;53.30;;;;;;7490489;23;20029;-76
2023/02/13 02:16:06;;;;;;;;;;;18.90;52.60;;;;;;7491832;23;19906;-76
2023/02/13 02:19:13;;;;;;;;;;;18.90;52.60;;;;;;7468432;23;19914;-76
2023/02/13 02:22:13;;;;;;;;;;;18.90;52.60;;;;;;7467122;23;19913;-76
2023/02/13 02:25:14;;;;;;;;;;;18.90;52.60;;;;;;7490521;23;19906;-76
2023/02/13 02:28:33;;;;;;;;;;;18.90;52.60;;;;;;7510395;23;20269;-76
2023/02/13 02:31:52;;;;;;;;;;;18.90;52.60;;;;;;7530283;23;19949;-76
2023/02/13 02:34:57;;;;;;;;;;;18.90;52.60;;;;;;7530453;23;19952;-76
2023/02/13 02:38:27;;;;;;;;;;;18.90;52.60;;;;;;7530644;23;20257;-76
2023/02/13 02:41:41;;;;;;;;;;;18.90;52.60;;;;;;7477342;23;19921;-76
2023/02/13 02:44:49;;;;;;;;;;;18.90;52.70;;;;;;7530088;23;19906;-76
2023/02/13 02:51:23;;;;;;;;;;;18.90;52.60;;;;;;7530801;23;19921;-77
2023/02/13 03:08:06;;;;;;;;;;;18.90;52.60;;;;;;7530051;23;19906;-76
2023/02/13 03:14:27;;;;;;;;;;;18.90;52.60;;;;;;7529872;23;19945;-77
2023/02/13 03:24:28;;;;;;;;;;;18.80;52.60;;;;;;7528871;23;19906;-76
2023/02/13 03:30:55;;;;;;;;;;;18.90;52.60;;;;;;7528822;23;19906;-76
2023/02/13 03:34:04;;;;;;;;;;;18.90;52.60;;;;;;7528734;23;19971;-76
2023/02/13 03:40:32;;;;;;;;;;;18.90;52.60;;;;;;7529142;23;19918;-77
2023/02/13 03:43:41;;;;;;;;;;;18.90;52.70;;;;;;7528647;23;19985;-76
2023/02/13 03:46:44;;;;;;;;;;;18.90;52.60;;;;;;7530184;23;19906;-76
2023/02/13 03:50:05;;;;;;;;;;;18.80;52.50;;;;;;7529410;23;19979;-76
2023/02/13 03:53:08;;;;;;;;;;;18.90;52.60;;;;;;7529929;23;19914;-76
2023/02/13 03:59:33;;;;;;;;;;;18.80;52.50;;;;;;7529758;23;19918;-75
2023/02/13 04:02:37;;;;;;;;;;;18.90;52.60;;;;;;7530106;23;19944;-76
2023/02/13 04:05:40;;;;;;;;;;;18.90;52.60;;;;;;7529755;23;19913;-76
2023/02/13 04:08:40;;;;;;;;;;;18.80;52.50;;;;;;7529215;23;19933;-76
2023/02/13 04:11:44;;;;;;;;;;;18.90;52.70;;;;;;7530476;23;19956;-77
2023/02/13 04:14:44;;;;;;;;;;;18.90;52.60;;;;;;7529769;23;19909;-76
2023/02/13 04:17:47;;;;;;;;;;;18.90;52.70;;;;;;7529738;23;19928;-76
2023/02/13 04:20:48;;;;;;;;;;;18.90;52.70;;;;;;7528755;23;19977;-76
2023/02/13 04:23:48;;;;;;;;;;;18.90;52.60;;;;;;7528270;23;19981;-76
2023/02/13 04:26:49;;;;;;;;;;;18.90;52.60;;;;;;7529135;23;19988;-76
2023/02/13 04:29:49;;;;;;;;;;;18.90;52.60;;;;;;7529035;23;20329;-76
2023/02/13 04:32:51;;;;;;;;;;;18.90;52.60;;;;;;7529094;23;20006;-76
2023/02/13 04:35:52;;;;;;;;;;;18.90;52.60;;;;;;7529126;23;19937;-77
2023/02/13 04:38:52;;;;;;;;;;;18.90;52.60;;;;;;7529687;23;19952;-76
2023/02/13 04:41:53;;;;;;;;;;;18.90;52.60;;;;;;7530391;23;19906;-76
2023/02/13 04:44:53;;;;;;;;;;;18.90;52.60;;;;;;7529155;23;20117;-76
2023/02/13 04:47:54;;;;;;;;;;;18.90;52.60;;;;;;7529409;23;19906;-76
2023/02/13 04:50:55;;;;;;;;;;;18.90;52.60;;;;;;7529569;23;19987;-76
2023/02/13 04:53:55;;;;;;;;;;;18.90;52.60;;;;;;7530266;23;19910;-76
2023/02/13 04:56:56;;;;;;;;;;;18.90;52.70;;;;;;7528853;23;19928;-76
2023/02/13 05:03:34;;;;;;;;;;;18.90;52.70;;;;;;7529278;23;19976;-76
2023/02/13 05:06:36;;;;;;;;;;;18.90;52.60;;;;;;7529186;23;20047;-76
2023/02/13 05:09:36;;;;;;;;;;;18.90;52.70;;;;;;7528906;23;19954;-76
2023/02/13 05:12:37;;;;;;;;;;;18.90;53.40;;;;;;7528688;23;20341;-76
2023/02/13 05:15:37;;;;;;;;;;;18.90;52.60;;;;;;7575068;23;19997;-76
2023/02/13 05:18:37;;;;;;;;;;;18.90;52.60;;;;;;7574945;23;19905;-76
2023/02/13 05:24:57;;;;;;;;;;;18.90;52.60;;;;;;7530076;23;20133;-77
2023/02/13 05:27:57;;;;;;;;;;;18.90;52.70;;;;;;7528808;23;19913;-76
2023/02/13 05:30:58;;;;;;;;;;;18.90;52.60;;;;;;7529344;23;19909;-76
2023/02/13 05:33:58;;;;;;;;;;;18.90;52.70;;;;;;7530268;23;19928;-76
2023/02/13 05:36:59;;;;;;;;;;;18.80;52.50;;;;;;7530020;23;20416;-76
2023/02/13 05:39:59;;;;;;;;;;;18.90;52.60;;;;;;7529784;23;19989;-77
2023/02/13 05:43:00;;;;;;;;;;;18.90;52.60;;;;;;7531198;23;20000;-76
2023/02/13 05:46:01;;;;;;;;;;;18.90;52.70;;;;;;7529942;23;19968;-76
2023/02/13 05:49:02;;;;;;;;;;;18.90;52.70;;;;;;7530043;23;19906;-76
2023/02/13 05:52:03;;;;;;;;;;;18.90;52.70;;;;;;7529750;23;20237;-76
2023/02/13 05:55:03;;;;;;;;;;;18.90;52.70;;;;;;7530032;23;19933;-75
2023/02/13 05:58:04;;;;;;;;;;;18.90;52.70;;;;;;7530223;23;19906;-76
2023/02/13 06:01:04;;;;;;;;;;;18.90;52.70;;;;;;7530315;23;20004;-76
2023/02/13 06:04:05;;;;;;;;;;;18.90;52.70;;;;;;7530517;23;19913;-76
2023/02/13 06:07:05;;;;;;;;;;;18.90;52.70;;;;;;7536308;23;19917;-76
2023/02/13 06:10:06;;;;;;;;;;;18.90;52.70;;;;;;7529968;23;19956;-76
2023/02/13 06:13:06;;;;;;;;;;;18.90;52.70;;;;;;7577537;23;19913;-76
2023/02/13 06:16:08;;;;;;;;;;;18.90;52.70;;;;;;7529327;23;19906;-77
2023/02/13 06:19:08;;;;;;;;;;;18.90;52.70;;;;;;7529803;23;19949;-77
2023/02/13 06:22:09;;;;;;;;;;;18.90;52.70;;;;;;7530492;23;19937;-77
2023/02/13 06:25:09;;;;;;;;;;;18.90;52.70;;;;;;7576595;23;19960;-76
2023/02/13 06:28:10;;;;;;;;;;;18.90;52.70;;;;;;7528946;23;19984;-77
2023/02/13 06:31:10;;;;;;;;;;;18.90;52.80;;;;;;7528345;23;19906;-76
2023/02/13 06:34:11;;;;;;;;;;;18.90;52.70;;;;;;7527513;23;19906;-76
2023/02/13 06:37:11;;;;;;;;;;;18.90;52.80;;;;;;7519227;23;19959;-76
2023/02/13 06:40:12;;;;;;;;;;;18.90;52.80;;;;;;7519563;23;19988;-76
2023/02/13 06:43:13;;;;;;;;;;;18.90;52.80;;;;;;7523930;23;19906;-76
2023/02/13 06:46:14;;;;;;;;;;;18.90;52.60;;;;;;7525574;23;20296;-77
2023/02/13 06:49:14;;;;;;;;;;;18.80;52.30;;;;;;7525736;23;19909;-77
2023/02/13 06:52:15;;;;;;;;;;;18.80;51.60;;;;;;7572390;23;20333;-77
2023/02/13 06:55:16;;;;;;;;;;;18.80;51.30;;;;;;7526306;23;19964;-77
2023/02/13 06:58:17;;;;;;;;;;;18.80;50.10;;;;;;7520804;23;19909;-76
2023/02/13 07:01:17;;;;;;;;;;;18.90;51.40;;;;;;7526231;23;20325;-76
2023/02/13 07:04:17;;;;;;;;;;;18.90;51.60;;;;;;7525165;23;20060;-77
2023/02/13 07:07:18;;;;;;;;;;;18.90;52.40;;;;;;7527399;23;20398;-77
2023/02/13 07:10:19;;;;;;;;;;;18.90;51.80;;;;;;7526916;23;19964;-77
2023/02/13 07:13:19;;;;;;;;;;;18.90;51.90;;;;;;7527638;23;19906;-77
2023/02/13 07:16:20;;;;;;;;;;;18.90;52.00;;;;;;7527446;23;20310;-77
2023/02/13 07:19:20;;;;;;;;;;;18.90;52.00;;;;;;7528330;23;19914;-77
2023/02/13 07:22:21;;;;;;;;;;;18.90;52.80;;;;;;7528869;23;19906;-77
2023/02/13 07:25:21;;;;;;;;;;;18.90;52.20;;;;;;7528286;23;19928;-77
2023/02/13 07:28:22;;;;;;;;;;;18.90;52.20;;;;;;7526258;23;19912;-77
2023/02/13 07:31:22;;;;;;;;;;;18.90;52.30;;;;;;7528615;23;19913;-77
2023/02/13 07:34:23;;;;;;;;;;;18.90;52.90;;;;;;7575778;23;19952;-77
2023/02/13 07:37:23;;;;;;;;;;;18.90;52.30;;;;;;7528953;23;20325;-77
2023/02/13 07:40:23;;;;;;;;;;;18.90;52.30;;;;;;7529325;23;19914;-77
2023/02/13 07:43:24;;;;;;;;;;;18.90;52.30;;;;;;7529640;23;19981;-78
2023/02/13 07:46:25;;;;;;;;;;;18.90;52.30;;;;;;7531981;23;19980;-77
2023/02/13 07:49:25;;;;;;;;;;;18.90;52.40;;;;;;7576136;23;19965;-77
2023/02/13 07:52:26;;;;;;;;;;;18.90;52.40;;;;;;7529710;23;20465;-77
2023/02/13 07:55:27;;;;;;;;;;;18.90;52.40;;;;;;7529787;23;19906;-76
2023/02/13 07:58:28;;;;;;;;;;;18.90;52.40;;;;;;7528926;23;19988;-77
2023/02/13 08:01:28;;;;;;;;;;;18.90;52.40;;;;;;7529786;23;19910;-77
2023/02/13 08:04:29;;;;;;;;;;;18.90;52.40;;;;;;7576486;23;19906;-77
2023/02/13 08:07:30;;;;;;;;;;;18.90;52.40;;;;;;7576212;23;19906;-77
2023/02/13 08:13:50;;;;;;;;;;;18.90;52.40;;;;;;7529198;23;19906;-77
2023/02/13 08:16:51;;;;;;;;;;;18.90;52.40;;;;;;7529473;23;19960;-76
2023/02/13 08:19:52;;;;;;;;;;;18.90;52.50;;;;;;7529580;23;19913;-77
2023/02/13 08:22:52;;;;;;;;;;;18.90;52.50;;;;;;7575983;23;19929;-77
2023/02/13 08:25:53;;;;;;;;;;;18.90;52.50;;;;;;7528936;23;19910;-77
2023/02/13 08:28:53;;;;;;;;;;;18.90;52.50;;;;;;7528996;23;19920;-77
2023/02/13 08:31:54;;;;;;;;;;;18.90;52.50;;;;;;7528590;23;20237;-76
2023/02/13 08:34:54;;;;;;;;;;;18.90;52.50;;;;;;7529178;23;19984;-77
2023/02/13 08:37:55;;;;;;;;;;;18.90;52.50;;;;;;7528640;23;19927;-77
2023/02/13 08:40:56;;;;;;;;;;;18.90;52.50;;;;;;7528774;23;19924;-77
2023/02/13 08:43:56;;;;;;;;;;;18.90;52.50;;;;;;7528669;23;19910;-79
2023/02/13 08:46:57;;;;;;;;;;;18.90;52.50;;;;;;7528890;23;19937;-77
2023/02/13 08:49:57;;;;;;;;;;;18.90;52.50;;;;;;7528922;23;19964;-77
2023/02/13 08:52:58;;;;;;;;;;;18.90;52.50;;;;;;7528715;23;19952;-77
2023/02/13 08:55:59;;;;;;;;;;;18.90;52.50;;;;;;7536504;23;19917;-76
2023/02/13 08:58:59;;;;;;;;;;;18.90;52.50;;;;;;7528737;23;19910;-76
2023/02/13 09:02:00;;;;;;;;;;;18.90;52.50;;;;;;7529065;23;19909;-77
2023/02/13 09:05:00;;;;;;;;;;;18.90;52.50;;;;;;7529983;23;19906;-77
2023/02/13 09:08:02;;;;;;;;;;;18.90;52.50;;;;;;7525859;23;19906;-78
2023/02/13 09:11:05;;;;;;;;;;;18.90;52.50;;;;;;7546659;23;19906;-75
2023/02/13 09:14:05;;;;;;;;;;;18.90;52.50;;;;;;7531531;23;20224;-78
2023/02/13 09:17:06;;;;;;;;;;;18.90;52.50;;;;;;7528533;23;19916;-77
2023/02/13 09:20:07;;;;;;;;;;;18.90;52.50;;;;;;7576853;23;19918;-77
2023/02/13 09:23:07;;;;;;;;;;;18.90;52.50;;;;;;7528977;23;19906;-77
2023/02/13 09:26:13;;;;;;;;;;;18.90;53.20;;;;;;7531921;23;20373;-78
2023/02/13 09:29:14;;;;;;;;;;;18.90;52.60;;;;;;7530393;23;19912;-78
2023/02/13 09:32:15;;;;;;;;;;;18.90;52.50;;;;;;7578476;23;19906;-78
2023/02/13 09:35:16;;;;;;;;;;;18.90;52.50;;;;;;7536498;23;20248;-77
2023/02/13 09:38:17;;;;;;;;;;;18.90;52.60;;;;;;7531321;23;19906;-78
2023/02/13 09:41:22;;;;;;;;;;;18.90;52.60;;;;;;7530175;23;20340;-77
2023/02/13 09:44:42;;;;;;;;;;;18.90;52.60;;;;;;7529894;23;19985;-77
2023/02/13 09:47:43;;;;;;;;;;;18.90;52.60;;;;;;7530282;23;19905;-76
2023/02/13 09:50:44;;;;;;;;;;;18.90;52.60;;;;;;7534077;23;19988;-77
2023/02/13 09:54:04;;;;;;;;;;;18.90;52.60;;;;;;7579453;23;19981;-77
2023/02/13 09:57:26;;;;;;;;;;;18.90;52.60;;;;;;7527980;23;19905;-77
2023/02/13 10:00:40;;;;;;;;;;;18.90;52.60;;;;;;7531151;23;19914;-79
2023/02/13 10:03:41;;;;;;;;;;;18.90;52.60;;;;;;7576659;23;19980;-76
2023/02/13 10:06:52;;;;;;;;;;;18.90;52.60;;;;;;7522994;23;21019;-76
2023/02/13 10:09:52;;;;;;;;;;;18.90;52.60;;;;;;7529581;23;20064;-77
2023/02/13 10:12:53;;;;;;;;;;;18.90;52.60;;;;;;7535452;23;19945;-76
2023/02/13 10:16:00;;;;;;;;;;;18.90;52.60;;;;;;7519822;23;19906;-76
2023/02/13 10:19:13;;;;;;;;;;;18.90;52.60;;;;;;7528573;23;19909;-76
2023/02/13 10:22:19;;;;;;;;;;;18.80;52.50;;;;;;7528004;23;19913;-75
2023/02/13 10:25:19;;;;;;;;;;;18.90;52.60;;;;;;7525194;23;20260;-76
2023/02/13 10:28:41;;;;;;;;;;;18.90;52.60;;;;;;7527034;23;19910;-76
2023/02/13 10:31:44;;;;;;;;;;;18.90;52.60;;;;;;7522014;23;19913;-76
2023/02/13 10:34:45;;;;;;;;;;;18.90;52.60;;;;;;7521168;23;19941;-76
2023/02/13 10:37:52;;;;;;;;;;;18.90;52.60;;;;;;7575753;23;19909;-76
2023/02/13 10:40:59;;;;;;;;;;;18.90;52.60;;;;;;7528552;23;19914;-78
2023/02/13 10:44:14;;;;;;;;;;;18.90;52.60;;;;;;7528055;23;19914;-76
2023/02/13 10:47:34;;;;;;;;;;;18.90;52.70;;;;;;7677726;23;19980;-77
2023/02/13 10:50:53;;;;;;;;;;;18.90;52.60;;;;;;7526133;23;19921;-76
2023/02/13 10:54:12;;;;;;;;;;;18.90;52.50;;;;;;7526402;23;19988;-78
2023/02/13 10:57:22;;;;;;;;;;;18.90;53.30;;;;;;7524398;23;20306;-76
2023/02/13 11:00:31;;;;;;;;;;;18.90;52.60;;;;;;7558990;23;19918;-76
2023/02/13 11:03:32;;;;;;;;;;;18.90;52.60;;;;;;7525860;23;19906;-76
2023/02/13 11:06:34;;;;;;;;;;;18.90;52.70;;;;;;7525440;23;19913;-76
2023/02/13 11:09:37;;;;;;;;;;;18.90;52.60;;;;;;7573187;23;19906;-75
2023/02/13 11:12:37;;;;;;;;;;;18.90;52.60;;;;;;7525668;23;19913;-76
2023/02/13 11:15:38;;;;;;;;;;;18.90;52.50;;;;;;7525595;23;19913;-77
2023/02/13 11:18:40;;;;;;;;;;;18.90;52.50;;;;;;7526688;23;19977;-76
2023/02/13 11:21:40;;;;;;;;;;;18.90;52.60;;;;;;7525465;23;19944;-76
2023/02/13 11:24:48;;;;;;;;;;;18.90;52.60;;;;;;7526199;23;20369;-75
2023/02/13 11:27:50;;;;;;;;;;;18.90;52.60;;;;;;7525518;23;19905;-75
2023/02/13 11:30:50;;;;;;;;;;;18.90;52.70;;;;;;7525517;23;20020;-78
2023/02/13 11:33:51;;;;;;;;;;;18.90;52.70;;;;;;7572236;23;20162;-75
2023/02/13 11:36:52;;;;;;;;;;;18.90;52.70;;;;;;7526126;23;19905;-76
2023/02/13 11:39:55;;;;;;;;;;;18.90;52.70;;;;;;7525241;23;19918;-76
2023/02/13 11:42:55;;;;;;;;;;;18.90;52.70;;;;;;7572513;23;19906;-76
2023/02/13 11:46:03;;;;;;;;;;;18.90;52.70;;;;;;7525807;23;19987;-76
2023/02/13 11:49:05;;;;;;;;;;;18.90;52.70;;;;;;7525947;23;20178;-78
2023/02/13 11:52:09;;;;;;;;;;;18.90;52.70;;;;;;7572434;23;19990;-78
2023/02/13 11:55:25;;;;;;;;;;;18.90;52.70;;;;;;7526071;23;19906;-76
2023/02/13 11:58:27;;;;;;;;;;;18.90;52.70;;;;;;7525465;23;19989;-76
2023/02/13 12:01:28;;;;;;;;;;;18.90;52.70;;;;;;7524799;23;20345;-77
2023/02/13 12:04:28;;;;;;;;;;;18.90;52.70;;;;;;7525515;23;20053;-76
2023/02/13 12:07:29;;;;;;;;;;;18.90;52.70;;;;;;7526381;23;20241;-76
2023/02/13 12:10:31;;;;;;;;;;;18.90;52.70;;;;;;7527324;23;20340;-76
2023/02/13 12:13:35;;;;;;;;;;;18.90;52.70;;;;;;7573740;23;20233;-76
2023/02/13 12:16:36;;;;;;;;;;;18.90;52.70;;;;;;7574274;23;19906;-76
2023/02/13 12:19:36;;;;;;;;;;;18.90;52.70;;;;;;7527075;23;19918;-76
2023/02/13 12:22:43;;;;;;;;;;;18.90;52.70;;;;;;7526866;23;19906;-76
2023/02/13 12:26:03;;;;;;;;;;;18.90;52.70;;;;;;7677215;23;20252;-78
2023/02/13 12:29:23;;;;;;;;;;;18.90;52.70;;;;;;7524925;23;19933;-78
2023/02/13 12:32:32;;;;;;;;;;;18.90;52.60;;;;;;7526957;23;20284;-77
2023/02/13 12:35:38;;;;;;;;;;;18.90;52.70;;;;;;7526621;23;19906;-76
2023/02/13 12:38:48;;;;;;;;;;;18.90;52.70;;;;;;7525053;23;19909;-76
2023/02/13 12:41:48;;;;;;;;;;;18.90;52.70;;;;;;7527114;23;19955;-77
2023/02/13 12:45:21;;;;;;;;;;;18.90;52.70;;;;;;7677810;23;19905;-77
2023/02/13 12:48:30;;;;;;;;;;;18.90;52.70;;;;;;7479420;23;19971;-77
2023/02/13 12:51:34;;;;;;;;;;;18.90;52.70;;;;;;7510764;23;20281;-77
2023/02/13 12:54:54;;;;;;;;;;;18.90;52.70;;;;;;7527255;23;19912;-77
2023/02/13 12:58:03;;;;;;;;;;;18.90;52.70;;;;;;7523579;23;19906;-76
2023/02/13 13:01:03;;;;;;;;;;;18.90;52.70;;;;;;7513102;23;19914;-76
2023/02/13 13:04:07;;;;;;;;;;;18.90;52.70;;;;;;7527560;23;19906;-76
2023/02/13 13:07:08;;;;;;;;;;;18.90;52.70;;;;;;7656910;23;19906;-76
2023/02/13 13:10:26;;;;;;;;;;;18.90;52.70;;;;;;7527156;23;19910;-76
2023/02/13 13:13:31;;;;;;;;;;;18.90;52.70;;;;;;7526590;23;19917;-76
2023/02/13 13:16:41;;;;;;;;;;;18.90;52.70;;;;;;7521813;23;20313;-78
2023/02/13 13:19:54;;;;;;;;;;;18.90;52.70;;;;;;7487009;23;19917;-76
2023/02/13 13:23:03;;;;;;;;;;;18.90;52.70;;;;;;7488039;23;19906;-76
2023/02/13 13:26:23;;;;;;;;;;;18.90;52.70;;;;;;7488535;23;20293;-77
2023/02/13 13:29:26;;;;;;;;;;;18.90;53.40;;;;;;7486874;23;19906;-76
2023/02/13 13:32:28;;;;;;;;;;;18.90;52.70;;;;;;7487544;23;19998;-75
2023/02/13 13:35:29;;;;;;;;;;;18.90;52.80;;;;;;7462808;23;19929;-75
2023/02/13 13:38:35;;;;;;;;;;;18.90;52.80;;;;;;7488246;23;19906;-75
2023/02/13 13:41:41;;;;;;;;;;;18.90;52.80;;;;;;7487743;23;19920;-76
2023/02/13 13:45:07;;;;;;;;;;;18.90;52.70;;;;;;7487701;23;20359;-76
2023/02/13 13:48:23;;;;;;;;;;;18.90;52.70;;;;;;7487291;23;19906;-76
2023/02/13 13:51:23;;;;;;;;;;;18.90;52.70;;;;;;7518598;23;19925;-76
2023/02/13 13:54:31;;;;;;;;;;;18.90;52.70;;;;;;7526345;23;19905;-76
2023/02/13 13:57:31;;;;;;;;;;;18.90;52.70;;;;;;7515894;23;19906;-76
2023/02/13 14:00:32;;;;;;;;;;;18.90;52.70;;;;;;7525572;23;20424;-76
2023/02/13 14:03:35;;;;;;;;;;;18.90;52.70;;;;;;7516935;23;19910;-76
2023/02/13 14:06:38;;;;;;;;;;;18.90;52.70;;;;;;7526209;23;19916;-76
2023/02/13 14:09:40;;;;;;;;;;;18.90;52.70;;;;;;7525872;23;19906;-76
2023/02/13 14:12:45;;;;;;;;;;;18.90;52.70;;;;;;7527659;23;20012;-76
2023/02/13 14:15:50;;;;;;;;;;;18.90;52.70;;;;;;7528605;23;19960;-77
2023/02/13 14:18:50;;;;;;;;;;;18.90;52.80;;;;;;7528345;23;19937;-76
2023/02/13 14:21:51;;;;;;;;;;;18.90;52.70;;;;;;7527535;23;19997;-76
2023/02/13 14:24:52;;;;;;;;;;;18.90;52.70;;;;;;7573901;23;19989;-76
2023/02/13 14:27:55;;;;;;;;;;;18.90;52.70;;;;;;7527327;23;20381;-77
2023/02/13 14:31:04;;;;;;;;;;;18.90;52.60;;;;;;7527118;23;19906;-76
2023/02/13 14:34:11;;;;;;;;;;;18.90;52.70;;;;;;7526552;23;20361;-75
2023/02/13 14:37:19;;;;;;;;;;;18.90;52.70;;;;;;7524001;23;19905;-76
2023/02/13 14:40:20;;;;;;;;;;;18.90;52.70;;;;;;7524468;23;19913;-76
2023/02/13 14:43:40;;;;;;;;;;;18.90;52.70;;;;;;7678085;23;19906;-76
2023/02/13 14:46:44;;;;;;;;;;;18.90;52.70;;;;;;7528981;23;19905;-77
2023/02/13 14:49:46;;;;;;;;;;;19.00;52.70;;;;;;7576912;23;19917;-77
2023/02/13 14:52:47;;;;;;;;;;;19.00;52.70;;;;;;7529840;23;19909;-78
2023/02/13 14:55:51;;;;;;;;;;;18.90;52.60;;;;;;7526463;23;19905;-78
2023/02/13 14:59:01;;;;;;;;;;;18.90;52.60;;;;;;7575785;23;19910;-77
2023/02/13 15:02:14;;;;;;;;;;;18.90;52.60;;;;;;7526932;23;19909;-78
2023/02/13 15:05:18;;;;;;;;;;;18.90;52.60;;;;;;7526256;23;19906;-78
2023/02/13 15:08:28;;;;;;;;;;;18.90;52.60;;;;;;7528209;23;19906;-78
2023/02/13 15:11:54;;;;;;;;;;;18.90;52.60;;;;;;7526083;23;20242;-77
2023/02/13 15:14:55;;;;;;;;;;;18.90;52.60;;;;;;7523344;23;20040;-77
2023/02/13 15:18:00;;;;;;;;;;;18.90;52.60;;;;;;7528456;23;19937;-78
2023/02/13 15:21:01;;;;;;;;;;;18.90;52.60;;;;;;7526851;23;20284;-78
2023/02/13 15:24:02;;;;;;;;;;;18.90;52.60;;;;;;7527135;23;19912;-78
2023/02/13 15:27:04;;;;;;;;;;;18.90;52.60;;;;;;7527450;23;19913;-78
2023/02/13 15:30:17;;;;;;;;;;;18.90;52.60;;;;;;7524623;23;19917;-78
2023/02/13 15:33:19;;;;;;;;;;;18.90;52.60;;;;;;7522913;23;19906;-78
2023/02/13 15:36:21;;;;;;;;;;;18.90;52.60;;;;;;7525949;23;20241;-78
2023/02/13 15:39:23;;;;;;;;;;;18.90;52.60;;;;;;7526664;23;19921;-77
2023/02/13 15:42:24;;;;;;;;;;;18.90;52.70;;;;;;7528278;23;19913;-77
2023/02/13 15:45:26;;;;;;;;;;;18.90;52.70;;;;;;7527735;23;20322;-77
2023/02/13 15:48:27;;;;;;;;;;;18.90;52.70;;;;;;7576875;23;19917;-76
2023/02/13 15:51:29;;;;;;;;;;;18.90;52.70;;;;;;7526080;23;20368;-77
2023/02/13 15:54:31;;;;;;;;;;;18.90;52.70;;;;;;7535893;23;20383;-78
2023/02/13 15:57:31;;;;;;;;;;;18.90;52.70;;;;;;7525142;23;19905;-77
2023/02/13 16:00:33;;;;;;;;;;;18.90;52.70;;;;;;7526557;23;20288;-77
2023/02/13 16:03:35;;;;;;;;;;;18.90;52.70;;;;;;7525798;23;19929;-77
2023/02/13 16:06:35;;;;;;;;;;;18.90;52.70;;;;;;7525441;23;19929;-77
2023/02/13 16:09:36;;;;;;;;;;;18.90;52.70;;;;;;7526952;23;19956;-77
2023/02/13 16:12:43;;;;;;;;;;;18.90;52.70;;;;;;7527490;23;19910;-77
2023/02/13 16:15:43;;;;;;;;;;;18.90;52.70;;;;;;7528213;23;19906;-77
2023/02/13 16:18:44;;;;;;;;;;;18.90;52.70;;;;;;7527783;23;20016;-77
2023/02/13 16:21:46;;;;;;;;;;;18.90;52.70;;;;;;7528358;23;19914;-77
2023/02/13 16:24:49;;;;;;;;;;;19.00;52.80;;;;;;7525863;23;20229;-76
2023/02/13 16:27:50;;;;;;;;;;;19.00;52.70;;;;;;7523568;23;20325;-76
2023/02/13 16:30:50;;;;;;;;;;;18.90;52.60;;;;;;7523673;23;20009;-77
2023/02/13 16:33:51;;;;;;;;;;;18.90;52.60;;;;;;7525025;23;19909;-77
2023/02/13 16:36:51;;;;;;;;;;;18.90;52.60;;;;;;7524242;23;19933;-77
2023/02/13 16:39:52;;;;;;;;;;;19.00;52.70;;;;;;7572135;23;20026;-78
2023/02/13 16:42:52;;;;;;;;;;;19.00;52.70;;;;;;7524745;23;19913;-77
2023/02/13 16:45:53;;;;;;;;;;;19.00;52.70;;;;;;7525457;23;20009;-77
2023/02/13 16:48:56;;;;;;;;;;;18.90;52.60;;;;;;7524126;23;19913;-77
2023/02/13 16:52:20;;;;;;;;;;;19.00;52.70;;;;;;7524279;23;19921;-76
2023/02/13 16:55:20;;;;;;;;;;;19.00;52.80;;;;;;7515768;23;19912;-76
2023/02/13 16:58:21;;;;;;;;;;;19.00;52.80;;;;;;7525193;23;19906;-77
2023/02/13 17:01:21;;;;;;;;;;;19.00;52.80;;;;;;7524069;23;20249;-77
2023/02/13 17:04:23;;;;;;;;;;;19.00;52.80;;;;;;7524644;23;19906;-77
2023/02/13 17:07:28;;;;;;;;;;;19.00;52.90;;;;;;7571389;23;19905;-76
2023/02/13 17:10:32;;;;;;;;;;;19.00;52.90;;;;;;7524272;23;19955;-76
2023/02/13 17:13:33;;;;;;;;;;;19.00;52.90;;;;;;7526379;23;20020;-77
2023/02/13 17:16:33;;;;;;;;;;;19.00;52.90;;;;;;7525547;23;19914;-76
2023/02/13 17:19:34;;;;;;;;;;;19.00;52.90;;;;;;7569372;23;20127;-76
2023/02/13 17:22:36;;;;;;;;;;;19.00;52.90;;;;;;7519996;23;20190;-76
2023/02/13 17:25:36;;;;;;;;;;;19.00;52.80;;;;;;7517314;23;19933;-76
2023/02/13 17:28:37;;;;;;;;;;;19.00;52.80;;;;;;7522724;23;20083;-77
2023/02/13 17:31:38;;;;;;;;;;;19.00;52.90;;;;;;7522602;23;19909;-76
2023/02/13 17:34:38;;;;;;;;;;;19.00;52.90;;;;;;7529419;23;20333;-76
2023/02/13 17:37:39;;;;;;;;;;;19.00;52.90;;;;;;7521032;23;19909;-77
2023/02/13 17:40:41;;;;;;;;;;;19.00;52.80;;;;;;7521290;23;19917;-76
2023/02/13 17:43:42;;;;;;;;;;;18.90;52.10;;;;;;7521384;23;20012;-76
2023/02/13 17:46:42;;;;;;;;;;;18.90;51.40;;;;;;7521959;23;19909;-76
2023/02/13 17:49:43;;;;;;;;;;;18.90;50.70;;;;;;7520217;23;19922;-76
2023/02/13 17:52:44;;;;;;;;;;;18.90;50.20;;;;;;7522703;23;19910;-76
2023/02/13 17:55:44;;;;;;;;;;;18.90;49.70;;;;;;7521337;23;20369;-76
2023/02/13 17:58:46;;;;;;;;;;;18.90;49.30;;;;;;7522994;23;19910;-76
2023/02/13 18:01:46;;;;;;;;;;;18.90;49.70;;;;;;7512457;23;20118;-76
2023/02/13 18:04:47;;;;;;;;;;;18.90;50.00;;;;;;7520959;23;20225;-76
2023/02/13 18:07:48;;;;;;;;;;;18.90;49.30;;;;;;7522034;23;20412;-76
2023/02/13 18:10:48;;;;;;;;;;;18.90;49.50;;;;;;7523176;23;19910;-76
2023/02/13 18:13:49;;;;;;;;;;;19.00;50.30;;;;;;7522276;23;19948;-76
2023/02/13 18:16:49;;;;;;;;;;;19.00;50.50;;;;;;7524286;23;20381;-76
2023/02/13 18:19:50;;;;;;;;;;;18.90;50.80;;;;;;7519803;23;19917;-75
2023/02/13 18:22:50;;;;;;;;;;;18.90;50.90;;;;;;7521685;23;19916;-75
2023/02/13 18:25:51;;;;;;;;;;;19.00;51.10;;;;;;7519655;23;19913;-75
2023/02/13 18:28:52;;;;;;;;;;;18.90;51.20;;;;;;7512058;23;19909;-76
2023/02/13 18:31:53;;;;;;;;;;;18.90;51.20;;;;;;7519926;23;20324;-76
2023/02/13 18:34:54;;;;;;;;;;;18.90;51.30;;;;;;7522022;23;19909;-75